sensor_id;sensor_type;location;lat;lon;timestamp;P1;P2;P0
61873;PMS5003;49692;55.052;73.310;2022-09-09T00:00:15;7.25;3.00;1.00
61873;PMS5003;49692;55.052;73.310;2022-09-09T00:02:45;4.00;4.00;4.00
61873;PMS5003;49692;55.052;73.310;2022-09-09T00:05:40;3.00;2.50;1.75
61873;PMS5003;49692;55.052;73.310;2022-09-09T00:08:20;8.00;5.00;3.50
61873;PMS5003;49692;55.052;73.310;2022-09-09T00:10:58;5.00;4.50;4.00
61873;PMS5003;49692;55.052;73.310;2022-09-09T00:13:39;4.25;2.50;1.00
61873;PMS5003;49692;55.052;73.310;2022-09-09T00:21:49;4.00;2.00;1.00
61873;PMS5003;49692;55.052;73.310;2022-09-09T00:24:43;6.00;3.50;2.00
61873;PMS5003;49692;55.052;73.310;2022-09-09T00:27:19;5.00;3.00;2.00
61873;PMS5003;49692;55.052;73.310;2022-09-09T00:30:00;4.25;4.00;2.00
61873;PMS5003;49692;55.052;73.310;2022-09-09T00:32:41;6.25;2.00;0.50
61873;PMS5003;49692;55.052;73.310;2022-09-09T00:35:22;6.50;3.50;2.00
61873;PMS5003;49692;55.052;73.310;2022-09-09T00:37:52;3.75;3.50;2.00
61873;PMS5003;49692;55.052;73.310;2022-09-09T00:40:24;7.50;5.00;2.00
61873;PMS5003;49692;55.052;73.310;2022-09-09T00:57:48;10.00;2.00;2.00
61873;PMS5003;49692;55.052;73.310;2022-09-09T01:00:35;4.00;4.00;2.00
61873;PMS5003;49692;55.052;73.310;2022-09-09T01:03:22;14.75;7.75;4.00
61873;PMS5003;49692;55.052;73.310;2022-09-09T01:06:35;8.00;7.50;4.00
61873;PMS5003;49692;55.052;73.310;2022-09-09T01:14:23;8.25;7.00;5.00
61873;PMS5003;49692;55.052;73.310;2022-09-09T01:18:15;10.00;8.00;5.50
61873;PMS5003;49692;55.052;73.310;2022-09-09T01:20:14;8.00;7.00;5.00
61873;PMS5003;49692;55.052;73.310;2022-09-09T01:28:45;12.25;7.25;5.00
61873;PMS5003;49692;55.052;73.310;2022-09-09T01:31:26;10.50;9.00;7.00
61873;PMS5003;49692;55.052;73.310;2022-09-09T01:34:16;11.50;8.00;5.00
61873;PMS5003;49692;55.052;73.310;2022-09-09T01:36:58;10.50;9.00;5.50
61873;PMS5003;49692;55.052;73.310;2022-09-09T01:39:33;10.00;8.00;6.00
61873;PMS5003;49692;55.052;73.310;2022-09-09T01:42:08;9.75;9.00;7.00
61873;PMS5003;49692;55.052;73.310;2022-09-09T01:44:44;12.00;8.00;6.00
61873;PMS5003;49692;55.052;73.310;2022-09-09T01:47:11;17.25;13.50;8.00
61873;PMS5003;49692;55.052;73.310;2022-09-09T01:49:58;14.25;11.00;8.00
61873;PMS5003;49692;55.052;73.310;2022-09-09T01:52:29;13.00;10.50;7.75
61873;PMS5003;49692;55.052;73.310;2022-09-09T01:54:56;12.50;9.25;6.50
61873;PMS5003;49692;55.052;73.310;2022-09-09T01:57:30;14.50;13.00;8.50
61873;PMS5003;49692;55.052;73.310;2022-09-09T02:00:09;17.25;14.50;10.25
61873;PMS5003;49692;55.052;73.310;2022-09-09T02:08:48;15.50;13.75;8.00
61873;PMS5003;49692;55.052;73.310;2022-09-09T02:11:17;17.25;12.00;8.00
61873;PMS5003;49692;55.052;73.310;2022-09-09T02:14:02;15.50;14.00;8.00
61873;PMS5003;49692;55.052;73.310;2022-09-09T02:17:32;15.75;12.75;6.00
61873;PMS5003;49692;55.052;73.310;2022-09-09T02:19:56;10.50;8.50;5.00
61873;PMS5003;49692;55.052;73.310;2022-09-09T02:22:39;17.25;9.50;4.75
61873;PMS5003;49692;55.052;73.310;2022-09-09T02:25:12;11.50;10.50;7.75
61873;PMS5003;49692;55.052;73.310;2022-09-09T02:27:44;11.50;11.00;7.50
61873;PMS5003;49692;55.052;73.310;2022-09-09T02:30:15;13.25;11.00;8.00
61873;PMS5003;49692;55.052;73.310;2022-09-09T02:32:48;14.50;10.50;7.50
61873;PMS5003;49692;55.052;73.310;2022-09-09T02:35:21;15.50;11.00;7.50
61873;PMS5003;49692;55.052;73.310;2022-09-09T02:37:51;12.25;8.50;5.00
61873;PMS5003;49692;55.052;73.310;2022-09-09T02:40:22;14.00;12.00;7.75
61873;PMS5003;49692;55.052;73.310;2022-09-09T02:42:57;20.50;14.75;11.50
61873;PMS5003;49692;55.052;73.310;2022-09-09T02:45:31;16.75;14.50;10.00
61873;PMS5003;49692;55.052;73.310;2022-09-09T02:48:20;15.25;13.25;7.25
61873;PMS5003;49692;55.052;73.310;2022-09-09T02:51:10;11.50;8.50;7.75
61873;PMS5003;49692;55.052;73.310;2022-09-09T02:54:26;14.75;12.50;9.00
61873;PMS5003;49692;55.052;73.310;2022-09-09T02:56:51;11.50;11.50;7.00
61873;PMS5003;49692;55.052;73.310;2022-09-09T02:59:25;11.75;11.75;7.75
61873;PMS5003;49692;55.052;73.310;2022-09-09T03:01:59;11.00;10.25;6.00
61873;PMS5003;49692;55.052;73.310;2022-09-09T03:04:27;15.25;12.00;8.25
61873;PMS5003;49692;55.052;73.310;2022-09-09T03:06:53;10.50;6.25;5.00
61873;PMS5003;49692;55.052;73.310;2022-09-09T03:09:30;10.50;8.00;7.00
61873;PMS5003;49692;55.052;73.310;2022-09-09T03:11:58;10.25;10.25;7.75
61873;PMS5003;49692;55.052;73.310;2022-09-09T03:14:28;7.00;6.00;4.00
61873;PMS5003;49692;55.052;73.310;2022-09-09T03:17:02;2.00;2.00;1.25
61873;PMS5003;49692;55.052;73.310;2022-09-09T03:19:37;8.75;6.50;4.75
61873;PMS5003;49692;55.052;73.310;2022-09-09T03:22:06;5.00;3.75;2.00
61873;PMS5003;49692;55.052;73.310;2022-09-09T03:24:36;5.50;5.00;4.75
61873;PMS5003;49692;55.052;73.310;2022-09-09T03:27:15;8.50;6.00;4.00
61873;PMS5003;49692;55.052;73.310;2022-09-09T03:29:42;6.25;5.00;2.50
61873;PMS5003;49692;55.052;73.310;2022-09-09T03:32:16;5.00;4.00;2.00
61873;PMS5003;49692;55.052;73.310;2022-09-09T03:34:44;4.33;2.67;2.67
61873;PMS5003;49692;55.052;73.310;2022-09-09T03:37:23;5.50;5.50;4.25
61873;PMS5003;49692;55.052;73.310;2022-09-09T03:39:51;5.50;4.25;3.50
61873;PMS5003;49692;55.052;73.310;2022-09-09T03:42:21;5.00;3.00;2.00
61873;PMS5003;49692;55.052;73.310;2022-09-09T03:44:51;2.00;1.50;0.50
61873;PMS5003;49692;55.052;73.310;2022-09-09T03:47:20;5.75;2.50;2.00
61873;PMS5003;49692;55.052;73.310;2022-09-09T03:49:50;10.50;5.50;4.00
61873;PMS5003;49692;55.052;73.310;2022-09-09T03:52:24;6.00;6.00;4.00
61873;PMS5003;49692;55.052;73.310;2022-09-09T03:54:54;6.75;5.00;4.00
61873;PMS5003;49692;55.052;73.310;2022-09-09T03:57:31;7.50;4.50;2.50
61873;PMS5003;49692;55.052;73.310;2022-09-09T04:00:10;6.50;4.25;2.00
61873;PMS5003;49692;55.052;73.310;2022-09-09T04:02:42;4.00;4.00;2.00
61873;PMS5003;49692;55.052;73.310;2022-09-09T04:05:14;4.50;4.00;2.00
61873;PMS5003;49692;55.052;73.310;2022-09-09T04:07:43;9.00;4.50;2.00
61873;PMS5003;49692;55.052;73.310;2022-09-09T04:10:11;5.50;2.50;2.00
61873;PMS5003;49692;55.052;73.310;2022-09-09T04:12:44;4.50;2.00;1.00
61873;PMS5003;49692;55.052;73.310;2022-09-09T04:15:22;4.75;3.50;2.00
61873;PMS5003;49692;55.052;73.310;2022-09-09T04:17:48;6.00;4.50;2.00
61873;PMS5003;49692;55.052;73.310;2022-09-09T04:20:17;5.50;4.50;2.50
61873;PMS5003;49692;55.052;73.310;2022-09-09T04:22:45;5.00;4.00;2.00
61873;PMS5003;49692;55.052;73.310;2022-09-09T04:25:13;5.00;4.75;2.00
61873;PMS5003;49692;55.052;73.310;2022-09-09T04:27:40;4.00;4.00;1.75
61873;PMS5003;49692;55.052;73.310;2022-09-09T04:30:11;6.00;3.00;2.00
61873;PMS5003;49692;55.052;73.310;2022-09-09T04:32:52;1.00;1.00;0.75
61873;PMS5003;49692;55.052;73.310;2022-09-09T04:35:23;5.50;2.00;1.00
61873;PMS5003;49692;55.052;73.310;2022-09-09T04:37:53;63.25;46.25;28.00
61873;PMS5003;49692;55.052;73.310;2022-09-09T04:40:31;2.75;1.75;1.00
61873;PMS5003;49692;55.052;73.310;2022-09-09T04:43:00;1.50;1.00;1.00
61873;PMS5003;49692;55.052;73.310;2022-09-09T04:45:30;2.50;2.50;1.00
61873;PMS5003;49692;55.052;73.310;2022-09-09T04:47:59;5.25;4.00;2.00
61873;PMS5003;49692;55.052;73.310;2022-09-09T04:50:29;1.00;1.00;1.00
61873;PMS5003;49692;55.052;73.310;2022-09-09T04:53:02;5.00;1.00;1.00
61873;PMS5003;49692;55.052;73.310;2022-09-09T04:55:33;1.00;1.00;1.00
61873;PMS5003;49692;55.052;73.310;2022-09-09T04:58:05;0.75;0.75;0.50
61873;PMS5003;49692;55.052;73.310;2022-09-09T05:00:35;1.00;1.00;1.00
61873;PMS5003;49692;55.052;73.310;2022-09-09T05:03:07;0.50;0.00;0.00
61873;PMS5003;49692;55.052;73.310;2022-09-09T05:05:36;1.00;0.25;0.00
61873;PMS5003;49692;55.052;73.310;2022-09-09T05:08:12;0.75;0.75;0.75
61873;PMS5003;49692;55.052;73.310;2022-09-09T05:10:40;1.00;1.00;0.00
61873;PMS5003;49692;55.052;73.310;2022-09-09T05:13:10;1.00;1.00;0.25
61873;PMS5003;49692;55.052;73.310;2022-09-09T05:15:41;3.75;1.50;1.25
61873;PMS5003;49692;55.052;73.310;2022-09-09T05:18:10;1.25;1.25;1.00
61873;PMS5003;49692;55.052;73.310;2022-09-09T05:20:42;1.00;1.00;0.00
61873;PMS5003;49692;55.052;73.310;2022-09-09T05:23:16;1.25;1.25;1.00
61873;PMS5003;49692;55.052;73.310;2022-09-09T05:25:53;3.00;1.50;0.50
61873;PMS5003;49692;55.052;73.310;2022-09-09T05:28:26;2.75;1.00;0.50
61873;PMS5003;49692;55.052;73.310;2022-09-09T05:31:02;1.50;1.00;1.00
61873;PMS5003;49692;55.052;73.310;2022-09-09T05:33:53;2.00;1.00;0.50
61873;PMS5003;49692;55.052;73.310;2022-09-09T05:36:25;2.00;1.00;1.00
61873;PMS5003;49692;55.052;73.310;2022-09-09T05:38:55;1.50;0.50;0.00
61873;PMS5003;49692;55.052;73.310;2022-09-09T05:41:25;1.50;0.75;0.75
61873;PMS5003;49692;55.052;73.310;2022-09-09T05:44:05;1.25;1.25;1.00
61873;PMS5003;49692;55.052;73.310;2022-09-09T05:46:37;0.75;0.75;0.75
61873;PMS5003;49692;55.052;73.310;2022-09-09T05:49:11;2.00;1.00;1.00
61873;PMS5003;49692;55.052;73.310;2022-09-09T05:51:40;3.00;2.00;1.00
61873;PMS5003;49692;55.052;73.310;2022-09-09T05:54:11;2.00;2.00;0.50
61873;PMS5003;49692;55.052;73.310;2022-09-09T05:56:52;2.50;0.50;0.00
61873;PMS5003;49692;55.052;73.310;2022-09-09T05:59:19;1.25;1.00;1.00
61873;PMS5003;49692;55.052;73.310;2022-09-09T06:01:47;1.00;0.00;0.00
61873;PMS5003;49692;55.052;73.310;2022-09-09T06:04:22;2.00;0.75;0.00
61873;PMS5003;49692;55.052;73.310;2022-09-09T06:06:51;3.75;1.25;1.00
61873;PMS5003;49692;55.052;73.310;2022-09-09T06:09:27;1.00;1.00;1.00
61873;PMS5003;49692;55.052;73.310;2022-09-09T06:11:56;2.00;1.75;1.25
61873;PMS5003;49692;55.052;73.310;2022-09-09T06:14:25;0.00;0.00;0.00
61873;PMS5003;49692;55.052;73.310;2022-09-09T06:16:56;2.00;0.50;0.50
61873;PMS5003;49692;55.052;73.310;2022-09-09T06:19:34;5.50;1.50;1.00
61873;PMS5003;49692;55.052;73.310;2022-09-09T06:22:02;0.25;0.25;0.00
61873;PMS5003;49692;55.052;73.310;2022-09-09T06:24:40;1.75;1.00;0.50
61873;PMS5003;49692;55.052;73.310;2022-09-09T06:27:17;2.50;1.75;1.00
61873;PMS5003;49692;55.052;73.310;2022-09-09T06:29:55;2.00;2.00;1.00
61873;PMS5003;49692;55.052;73.310;2022-09-09T06:32:28;1.00;1.00;1.00
61873;PMS5003;49692;55.052;73.310;2022-09-09T06:34:56;1.00;1.00;1.00
61873;PMS5003;49692;55.052;73.310;2022-09-09T06:37:28;1.75;1.50;1.00
61873;PMS5003;49692;55.052;73.310;2022-09-09T06:39:55;1.00;1.00;1.00
61873;PMS5003;49692;55.052;73.310;2022-09-09T06:42:23;1.00;1.00;0.25
61873;PMS5003;49692;55.052;73.310;2022-09-09T06:45:05;3.00;1.75;1.00
61873;PMS5003;49692;55.052;73.310;2022-09-09T06:47:49;4.00;1.75;1.00
61873;PMS5003;49692;55.052;73.310;2022-09-09T06:50:28;2.00;2.00;1.00
61873;PMS5003;49692;55.052;73.310;2022-09-09T06:52:54;1.00;1.00;1.00
61873;PMS5003;49692;55.052;73.310;2022-09-09T06:55:23;4.50;4.00;2.00
61873;PMS5003;49692;55.052;73.310;2022-09-09T06:57:51;3.50;2.00;1.25
61873;PMS5003;49692;55.052;73.310;2022-09-09T07:00:29;1.50;1.00;1.00
61873;PMS5003;49692;55.052;73.310;2022-09-09T07:02:56;1.00;1.00;1.00
61873;PMS5003;49692;55.052;73.310;2022-09-09T07:05:23;1.00;1.00;0.00
61873;PMS5003;49692;55.052;73.310;2022-09-09T07:07:54;3.00;3.00;3.00
61873;PMS5003;49692;55.052;73.310;2022-09-09T07:10:29;2.00;2.00;1.00
61873;PMS5003;49692;55.052;73.310;2022-09-09T07:12:58;1.00;1.00;1.00
61873;PMS5003;49692;55.052;73.310;2022-09-09T07:15:31;2.50;2.50;1.00
61873;PMS5003;49692;55.052;73.310;2022-09-09T07:18:05;3.00;3.00;2.00
61873;PMS5003;49692;55.052;73.310;2022-09-09T07:20:53;1.00;0.00;0.00
61873;PMS5003;49692;55.052;73.310;2022-09-09T07:23:26;1.50;1.50;1.50
61873;PMS5003;49692;55.052;73.310;2022-09-09T07:25:54;2.00;2.00;1.00
61873;PMS5003;49692;55.052;73.310;2022-09-09T07:28:38;3.25;1.75;1.00
61873;PMS5003;49692;55.052;73.310;2022-09-09T07:31:14;0.40;0.40;0.40
61873;PMS5003;49692;55.052;73.310;2022-09-09T07:33:53;1.00;1.00;0.50
61873;PMS5003;49692;55.052;73.310;2022-09-09T07:36:24;1.50;1.50;1.00
61873;PMS5003;49692;55.052;73.310;2022-09-09T07:39:12;2.25;1.50;1.50
61873;PMS5003;49692;55.052;73.310;2022-09-09T07:41:47;6.00;4.00;1.00
61873;PMS5003;49692;55.052;73.310;2022-09-09T07:44:27;2.25;1.50;1.50
61873;PMS5003;49692;55.052;73.310;2022-09-09T07:47:09;4.50;1.50;1.00
61873;PMS5003;49692;55.052;73.310;2022-09-09T07:49:40;1.25;1.25;1.00
61873;PMS5003;49692;55.052;73.310;2022-09-09T07:52:08;1.00;1.00;0.75
61873;PMS5003;49692;55.052;73.310;2022-09-09T07:54:38;2.50;2.50;1.00
61873;PMS5003;49692;55.052;73.310;2022-09-09T07:57:17;3.25;2.50;2.00
61873;PMS5003;49692;55.052;73.310;2022-09-09T07:59:44;1.50;1.50;1.25
61873;PMS5003;49692;55.052;73.310;2022-09-09T08:02:12;2.25;1.25;1.00
61873;PMS5003;49692;55.052;73.310;2022-09-09T08:04:40;1.75;1.75;1.50
61873;PMS5003;49692;55.052;73.310;2022-09-09T08:07:14;5.00;4.00;2.00
61873;PMS5003;49692;55.052;73.310;2022-09-09T08:09:52;3.00;1.50;1.00
61873;PMS5003;49692;55.052;73.310;2022-09-09T08:12:24;5.25;2.00;1.00
61873;PMS5003;49692;55.052;73.310;2022-09-09T08:14:54;5.25;4.00;1.50
61873;PMS5003;49692;55.052;73.310;2022-09-09T08:17:22;1.00;1.00;1.00
61873;PMS5003;49692;55.052;73.310;2022-09-09T08:19:48;3.20;1.80;1.00
61873;PMS5003;49692;55.052;73.310;2022-09-09T08:22:20;1.00;0.00;0.00
61873;PMS5003;49692;55.052;73.310;2022-09-09T08:24:49;3.00;1.25;1.00
61873;PMS5003;49692;55.052;73.310;2022-09-09T08:27:24;3.00;2.50;2.00
61873;PMS5003;49692;55.052;73.310;2022-09-09T08:29:53;5.00;5.00;2.00
61873;PMS5003;49692;55.052;73.310;2022-09-09T08:32:20;2.00;2.00;2.00
61873;PMS5003;49692;55.052;73.310;2022-09-09T08:34:50;1.00;0.00;0.00
61873;PMS5003;49692;55.052;73.310;2022-09-09T08:37:24;5.00;2.75;2.00
61873;PMS5003;49692;55.052;73.310;2022-09-09T08:39:51;1.25;1.25;1.00
61873;PMS5003;49692;55.052;73.310;2022-09-09T08:42:29;4.50;2.00;2.00
61873;PMS5003;49692;55.052;73.310;2022-09-09T08:45:19;1.00;0.00;0.00
61873;PMS5003;49692;55.052;73.310;2022-09-09T08:51:07;2.75;2.50;1.75
61873;PMS5003;49692;55.052;73.310;2022-09-09T08:53:38;1.50;1.00;0.50
61873;PMS5003;49692;55.052;73.310;2022-09-09T08:56:14;2.50;2.00;2.00
61873;PMS5003;49692;55.052;73.310;2022-09-09T08:58:51;5.00;3.00;2.00
61873;PMS5003;49692;55.052;73.310;2022-09-09T09:04:54;4.00;2.00;1.00
61873;PMS5003;49692;55.052;73.310;2022-09-09T09:12:57;2.20;2.00;2.00
61873;PMS5003;49692;55.052;73.310;2022-09-09T09:15:38;5.00;3.00;2.00
61873;PMS5003;49692;55.052;73.310;2022-09-09T09:18:17;3.25;3.25;2.50
61873;PMS5003;49692;55.052;73.310;2022-09-09T09:20:55;2.75;2.25;2.00
61873;PMS5003;49692;55.052;73.310;2022-09-09T09:23:36;5.00;1.50;1.00
61873;PMS5003;49692;55.052;73.310;2022-09-09T09:26:19;7.00;2.50;2.00
61873;PMS5003;49692;55.052;73.310;2022-09-09T09:28:51;13.00;13.00;9.00
61873;PMS5003;49692;55.052;73.310;2022-09-09T09:31:22;5.00;5.00;2.75
61873;PMS5003;49692;55.052;73.310;2022-09-09T09:33:54;2.20;2.20;0.60
61873;PMS5003;49692;55.052;73.310;2022-09-09T09:36:40;5.00;4.00;2.80
61873;PMS5003;49692;55.052;73.310;2022-09-09T09:39:33;5.20;2.00;1.60
61873;PMS5003;49692;55.052;73.310;2022-09-09T09:42:12;7.80;5.00;2.80
61873;PMS5003;49692;55.052;73.310;2022-09-09T09:44:42;5.25;5.25;3.00
61873;PMS5003;49692;55.052;73.310;2022-09-09T09:47:17;2.80;2.80;2.00
61873;PMS5003;49692;55.052;73.310;2022-09-09T09:49:54;2.40;2.40;2.00
61873;PMS5003;49692;55.052;73.310;2022-09-09T09:52:30;7.40;4.20;3.00
61873;PMS5003;49692;55.052;73.310;2022-09-09T09:55:11;5.60;5.40;2.40
61873;PMS5003;49692;55.052;73.310;2022-09-09T09:57:50;5.00;3.50;2.00
61873;PMS5003;49692;55.052;73.310;2022-09-09T10:00:20;4.75;3.50;2.50
61873;PMS5003;49692;55.052;73.310;2022-09-09T10:03:00;3.00;3.00;2.00
61873;PMS5003;49692;55.052;73.310;2022-09-09T10:05:31;3.00;2.00;2.00
61873;PMS5003;49692;55.052;73.310;2022-09-09T10:08:12;4.60;2.40;1.80
61873;PMS5003;49692;55.052;73.310;2022-09-09T10:10:48;4.50;2.50;2.00
61873;PMS5003;49692;55.052;73.310;2022-09-09T10:13:50;9.20;5.40;3.00
61873;PMS5003;49692;55.052;73.310;2022-09-09T10:24:36;6.50;5.25;3.00
61873;PMS5003;49692;55.052;73.310;2022-09-09T10:27:27;7.00;3.40;2.80
61873;PMS5003;49692;55.052;73.310;2022-09-09T10:35:31;3.50;3.50;3.00
61873;PMS5003;49692;55.052;73.310;2022-09-09T10:47:15;8.00;6.00;5.00
61873;PMS5003;49692;55.052;73.310;2022-09-09T10:50:04;10.75;6.50;3.00
61873;PMS5003;49692;55.052;73.310;2022-09-09T10:55:18;6.25;4.50;2.25
61873;PMS5003;49692;55.052;73.310;2022-09-09T10:57:52;8.75;6.00;5.00
61873;PMS5003;49692;55.052;73.310;2022-09-09T11:00:24;7.25;7.00;5.50
61873;PMS5003;49692;55.052;73.310;2022-09-09T11:06:15;6.50;6.25;3.50
61873;PMS5003;49692;55.052;73.310;2022-09-09T11:08:46;3.00;3.00;2.75
61873;PMS5003;49692;55.052;73.310;2022-09-09T11:11:20;6.25;5.00;2.75
61873;PMS5003;49692;55.052;73.310;2022-09-09T11:16:35;5.50;2.75;1.50
61873;PMS5003;49692;55.052;73.310;2022-09-09T11:21:48;7.80;4.60;3.00
61873;PMS5003;49692;55.052;73.310;2022-09-09T11:24:20;6.00;5.00;2.40
61873;PMS5003;49692;55.052;73.310;2022-09-09T11:30:19;6.00;3.00;2.60
61873;PMS5003;49692;55.052;73.310;2022-09-09T11:45:41;6.80;6.00;3.00
61873;PMS5003;49692;55.052;73.310;2022-09-09T11:48:23;5.40;5.20;3.00
61873;PMS5003;49692;55.052;73.310;2022-09-09T11:53:53;3.00;3.00;1.50
61873;PMS5003;49692;55.052;73.310;2022-09-09T11:56:46;4.50;3.25;3.25
61873;PMS5003;49692;55.052;73.310;2022-09-09T11:59:29;5.00;4.25;3.25
61873;PMS5003;49692;55.052;73.310;2022-09-09T12:02:03;9.25;6.50;5.00
61873;PMS5003;49692;55.052;73.310;2022-09-09T12:04:48;7.00;5.50;4.25
61873;PMS5003;49692;55.052;73.310;2022-09-09T12:07:36;14.00;9.75;7.25
61873;PMS5003;49692;55.052;73.310;2022-09-09T12:10:20;27.00;19.25;13.75
61873;PMS5003;49692;55.052;73.310;2022-09-09T12:13:21;30.25;24.75;18.50
61873;PMS5003;49692;55.052;73.310;2022-09-09T12:16:30;26.00;20.75;16.25
61873;PMS5003;49692;55.052;73.310;2022-09-09T12:19:33;31.00;26.75;20.50
61873;PMS5003;49692;55.052;73.310;2022-09-09T12:27:41;32.25;29.00;20.00
61873;PMS5003;49692;55.052;73.310;2022-09-09T12:30:17;30.25;26.25;22.00
61873;PMS5003;49692;55.052;73.310;2022-09-09T12:32:47;37.25;31.75;21.75
61873;PMS5003;49692;55.052;73.310;2022-09-09T12:35:25;35.00;33.25;22.00
61873;PMS5003;49692;55.052;73.310;2022-09-09T12:38:00;33.25;28.25;21.00
61873;PMS5003;49692;55.052;73.310;2022-09-09T12:40:33;39.75;31.00;20.50
61873;PMS5003;49692;55.052;73.310;2022-09-09T12:43:21;33.00;27.50;19.00
61873;PMS5003;49692;55.052;73.310;2022-09-09T12:46:03;30.50;25.00;19.25
61873;PMS5003;49692;55.052;73.310;2022-09-09T12:48:41;38.00;25.00;16.25
61873;PMS5003;49692;55.052;73.310;2022-09-09T12:51:19;38.25;31.00;20.50
61873;PMS5003;49692;55.052;73.310;2022-09-09T12:54:03;31.75;24.50;17.00
61873;PMS5003;49692;55.052;73.310;2022-09-09T12:56:31;21.25;18.00;10.25
61873;PMS5003;49692;55.052;73.310;2022-09-09T12:59:01;20.00;16.75;11.75
61873;PMS5003;49692;55.052;73.310;2022-09-09T13:01:43;21.75;18.25;12.50
61873;PMS5003;49692;55.052;73.310;2022-09-09T13:04:22;22.75;18.25;12.50
61873;PMS5003;49692;55.052;73.310;2022-09-09T13:06:52;20.25;17.25;11.00
61873;PMS5003;49692;55.052;73.310;2022-09-09T13:09:23;17.50;16.00;12.00
61873;PMS5003;49692;55.052;73.310;2022-09-09T13:11:57;21.50;13.75;10.00
61873;PMS5003;49692;55.052;73.310;2022-09-09T13:14:32;19.00;17.50;13.00
61873;PMS5003;49692;55.052;73.310;2022-09-09T13:17:28;23.00;17.50;12.25
61873;PMS5003;49692;55.052;73.310;2022-09-09T13:19:59;23.75;19.25;14.25
61873;PMS5003;49692;55.052;73.310;2022-09-09T13:25:17;25.75;17.50;11.50
61873;PMS5003;49692;55.052;73.310;2022-09-09T13:28:02;22.50;19.25;11.50
61873;PMS5003;49692;55.052;73.310;2022-09-09T13:30:37;20.50;13.75;9.50
61873;PMS5003;49692;55.052;73.310;2022-09-09T13:35:35;19.00;14.75;9.50
61873;PMS5003;49692;55.052;73.310;2022-09-09T13:38:31;24.75;15.75;11.00
61873;PMS5003;49692;55.052;73.310;2022-09-09T13:41:02;17.75;14.75;10.00
61873;PMS5003;49692;55.052;73.310;2022-09-09T13:43:36;24.25;16.00;9.75
61873;PMS5003;49692;55.052;73.310;2022-09-09T13:49:18;30.75;27.25;17.75
61873;PMS5003;49692;55.052;73.310;2022-09-09T13:52:04;28.25;24.00;12.00
61873;PMS5003;49692;55.052;73.310;2022-09-09T13:54:35;38.50;24.50;15.50
61873;PMS5003;49692;55.052;73.310;2022-09-09T13:57:02;26.00;20.50;14.75
61873;PMS5003;49692;55.052;73.310;2022-09-09T13:59:30;37.75;28.25;18.50
61873;PMS5003;49692;55.052;73.310;2022-09-09T14:02:02;39.00;31.50;19.50
61873;PMS5003;49692;55.052;73.310;2022-09-09T14:04:29;31.50;25.75;18.75
61873;PMS5003;49692;55.052;73.310;2022-09-09T14:06:58;32.50;24.25;17.25
61873;PMS5003;49692;55.052;73.310;2022-09-09T14:09:25;34.25;27.75;21.00
61873;PMS5003;49692;55.052;73.310;2022-09-09T14:12:04;44.75;34.50;24.50
61873;PMS5003;49692;55.052;73.310;2022-09-09T14:14:32;38.50;35.00;23.75
61873;PMS5003;49692;55.052;73.310;2022-09-09T14:16:58;34.50;25.25;16.75
61873;PMS5003;49692;55.052;73.310;2022-09-09T14:19:27;45.00;35.00;22.50
61873;PMS5003;49692;55.052;73.310;2022-09-09T14:22:04;30.00;25.50;21.50
61873;PMS5003;49692;55.052;73.310;2022-09-09T14:24:32;45.75;33.75;22.00
61873;PMS5003;49692;55.052;73.310;2022-09-09T14:27:01;32.50;28.75;24.50
61873;PMS5003;49692;55.052;73.310;2022-09-09T14:29:28;47.00;36.00;24.50
61873;PMS5003;49692;55.052;73.310;2022-09-09T14:32:04;48.75;37.00;23.00
61873;PMS5003;49692;55.052;73.310;2022-09-09T14:34:31;49.25;38.25;25.50
61873;PMS5003;49692;55.052;73.310;2022-09-09T14:37:00;62.50;43.50;27.50
61873;PMS5003;49692;55.052;73.310;2022-09-09T14:39:35;60.75;43.00;26.50
61873;PMS5003;49692;55.052;73.310;2022-09-09T14:42:04;44.25;32.25;24.50
61873;PMS5003;49692;55.052;73.310;2022-09-09T14:44:31;52.25;38.25;21.75
61873;PMS5003;49692;55.052;73.310;2022-09-09T14:47:04;41.00;31.25;23.50
61873;PMS5003;49692;55.052;73.310;2022-09-09T14:49:37;55.25;39.75;24.25
61873;PMS5003;49692;55.052;73.310;2022-09-09T14:52:06;82.60;61.60;37.80
61873;PMS5003;49692;55.052;73.310;2022-09-09T14:54:35;59.60;44.80;29.80
61873;PMS5003;49692;55.052;73.310;2022-09-09T14:57:03;61.50;41.50;26.00
61873;PMS5003;49692;55.052;73.310;2022-09-09T14:59:29;60.00;44.00;29.00
61873;PMS5003;49692;55.052;73.310;2022-09-09T15:01:56;59.75;39.50;24.25
61873;PMS5003;49692;55.052;73.310;2022-09-09T15:04:30;46.75;36.50;22.75
61873;PMS5003;49692;55.052;73.310;2022-09-09T15:07:00;52.50;40.50;28.00
61873;PMS5003;49692;55.052;73.310;2022-09-09T15:09:29;48.25;32.50;20.75
61873;PMS5003;49692;55.052;73.310;2022-09-09T15:11:56;32.50;27.25;15.00
61873;PMS5003;49692;55.052;73.310;2022-09-09T15:14:23;57.50;37.75;24.00
61873;PMS5003;49692;55.052;73.310;2022-09-09T15:16:56;42.50;33.00;21.75
61873;PMS5003;49692;55.052;73.310;2022-09-09T15:19:22;43.25;32.50;23.75
61873;PMS5003;49692;55.052;73.310;2022-09-09T15:21:49;44.75;33.50;22.75
61873;PMS5003;49692;55.052;73.310;2022-09-09T15:24:18;51.25;41.75;28.50
61873;PMS5003;49692;55.052;73.310;2022-09-09T15:26:48;39.00;29.50;21.50
61873;PMS5003;49692;55.052;73.310;2022-09-09T15:29:18;40.00;32.50;23.00
61873;PMS5003;49692;55.052;73.310;2022-09-09T15:31:44;40.50;35.75;22.75
61873;PMS5003;49692;55.052;73.310;2022-09-09T15:34:12;36.50;29.50;22.00
61873;PMS5003;49692;55.052;73.310;2022-09-09T15:36:40;33.25;29.00;19.00
61873;PMS5003;49692;55.052;73.310;2022-09-09T15:39:13;31.75;29.00;18.75
61873;PMS5003;49692;55.052;73.310;2022-09-09T15:41:48;21.25;21.25;16.00
61873;PMS5003;49692;55.052;73.310;2022-09-09T15:44:18;29.75;22.50;12.50
61873;PMS5003;49692;55.052;73.310;2022-09-09T15:46:49;37.75;29.25;21.75
61873;PMS5003;49692;55.052;73.310;2022-09-09T15:49:35;32.00;26.75;19.50
61873;PMS5003;49692;55.052;73.310;2022-09-09T15:52:02;33.75;28.25;19.75
61873;PMS5003;49692;55.052;73.310;2022-09-09T15:54:43;25.50;23.00;17.00
61873;PMS5003;49692;55.052;73.310;2022-09-09T15:57:11;34.00;25.25;18.50
61873;PMS5003;49692;55.052;73.310;2022-09-09T15:59:55;33.75;26.50;16.50
61873;PMS5003;49692;55.052;73.310;2022-09-09T16:02:22;33.00;27.50;19.00
61873;PMS5003;49692;55.052;73.310;2022-09-09T16:04:48;28.75;23.00;18.00
61873;PMS5003;49692;55.052;73.310;2022-09-09T16:07:15;37.50;29.50;21.50
61873;PMS5003;49692;55.052;73.310;2022-09-09T16:09:43;30.25;23.25;17.50
61873;PMS5003;49692;55.052;73.310;2022-09-09T16:12:19;23.00;18.00;16.25
61873;PMS5003;49692;55.052;73.310;2022-09-09T16:14:48;33.00;25.25;19.00
61873;PMS5003;49692;55.052;73.310;2022-09-09T16:17:25;33.50;26.75;18.00
61873;PMS5003;49692;55.052;73.310;2022-09-09T16:19:54;29.25;23.00;16.00
61873;PMS5003;49692;55.052;73.310;2022-09-09T16:22:25;28.50;24.25;15.25
61873;PMS5003;49692;55.052;73.310;2022-09-09T16:24:52;28.33;22.67;15.67
61873;PMS5003;49692;55.052;73.310;2022-09-09T16:27:26;33.50;26.25;16.00
61873;PMS5003;49692;55.052;73.310;2022-09-09T16:29:53;23.00;20.50;16.00
61873;PMS5003;49692;55.052;73.310;2022-09-09T16:32:23;22.75;16.00;11.50
61873;PMS5003;49692;55.052;73.310;2022-09-09T16:34:51;21.75;19.00;12.25